sensor_id;sensor_type;location;lat;lon;timestamp;temperature;humidity
79750;SHT31;69233;51.968;5.658;2023-08-07T00:00:28;16.8;74.7
79750;SHT31;69233;51.968;5.658;2023-08-07T00:02:58;16.8;74.9
79750;SHT31;69233;51.968;5.658;2023-08-07T00:05:28;16.8;75.2
79750;SHT31;69233;51.968;5.658;2023-08-07T00:07:59;16.7;75.6
79750;SHT31;69233;51.968;5.658;2023-08-07T00:10:29;16.7;75.8
79750;SHT31;69233;51.968;5.658;2023-08-07T00:12:59;16.6;75.9
79750;SHT31;69233;51.968;5.658;2023-08-07T00:15:29;16.6;76.0
79750;SHT31;69233;51.968;5.658;2023-08-07T00:18:02;16.6;76.2
79750;SHT31;69233;51.968;5.658;2023-08-07T00:20:31;16.6;76.3
79750;SHT31;69233;51.968;5.658;2023-08-07T00:25:01;16.6;76.3
79750;SHT31;69233;51.968;5.658;2023-08-07T00:27:34;16.5;76.7
79750;SHT31;69233;51.968;5.658;2023-08-07T00:30:03;16.5;76.7
79750;SHT31;69233;51.968;5.658;2023-08-07T00:32:35;16.5;76.8
79750;SHT31;69233;51.968;5.658;2023-08-07T00:35:06;16.5;76.8
79750;SHT31;69233;51.968;5.658;2023-08-07T00:37:39;16.5;76.8
79750;SHT31;69233;51.968;5.658;2023-08-07T00:40:12;16.5;77.1
79750;SHT31;69233;51.968;5.658;2023-08-07T00:42:42;16.5;77.2
79750;SHT31;69233;51.968;5.658;2023-08-07T00:45:12;16.5;77.2
79750;SHT31;69233;51.968;5.658;2023-08-07T00:47:42;16.5;77.1
79750;SHT31;69233;51.968;5.658;2023-08-07T00:50:12;16.5;77.2
79750;SHT31;69233;51.968;5.658;2023-08-07T00:52:45;16.5;77.1
79750;SHT31;69233;51.968;5.658;2023-08-07T00:55:15;16.5;77.2
79750;SHT31;69233;51.968;5.658;2023-08-07T00:57:50;16.5;77.1
79750;SHT31;69233;51.968;5.658;2023-08-07T01:00:20;16.6;77.0
79750;SHT31;69233;51.968;5.658;2023-08-07T01:02:52;16.6;76.6
79750;SHT31;69233;51.968;5.658;2023-08-07T01:05:29;16.6;76.4
79750;SHT31;69233;51.968;5.658;2023-08-07T01:08:01;16.6;76.1
79750;SHT31;69233;51.968;5.658;2023-08-07T01:10:38;16.6;76.0
79750;SHT31;69233;51.968;5.658;2023-08-07T01:13:18;16.6;75.8
79750;SHT31;69233;51.968;5.658;2023-08-07T01:15:52;16.6;75.8
79750;SHT31;69233;51.968;5.658;2023-08-07T01:18:22;16.6;75.8
79750;SHT31;69233;51.968;5.658;2023-08-07T01:20:53;16.6;75.6
79750;SHT31;69233;51.968;5.658;2023-08-07T01:23:22;16.6;75.6
79750;SHT31;69233;51.968;5.658;2023-08-07T01:25:52;16.6;75.6
79750;SHT31;69233;51.968;5.658;2023-08-07T01:28:27;16.6;75.8
79750;SHT31;69233;51.968;5.658;2023-08-07T01:31:03;16.6;75.8
79750;SHT31;69233;51.968;5.658;2023-08-07T01:33:39;16.7;75.8
79750;SHT31;69233;51.968;5.658;2023-08-07T01:36:12;16.7;75.8
79750;SHT31;69233;51.968;5.658;2023-08-07T01:38:43;16.7;75.8
79750;SHT31;69233;51.968;5.658;2023-08-07T01:41:13;16.7;75.9
79750;SHT31;69233;51.968;5.658;2023-08-07T01:43:45;16.7;75.8
79750;SHT31;69233;51.968;5.658;2023-08-07T01:46:14;16.7;75.6
79750;SHT31;69233;51.968;5.658;2023-08-07T01:48:46;16.7;75.5
79750;SHT31;69233;51.968;5.658;2023-08-07T01:51:25;16.7;75.1
79750;SHT31;69233;51.968;5.658;2023-08-07T01:53:55;16.7;75.4
79750;SHT31;69233;51.968;5.658;2023-08-07T01:56:25;16.7;75.6
79750;SHT31;69233;51.968;5.658;2023-08-07T01:58:56;16.7;75.5
79750;SHT31;69233;51.968;5.658;2023-08-07T02:01:26;16.8;75.4
79750;SHT31;69233;51.968;5.658;2023-08-07T02:03:55;16.8;75.3
79750;SHT31;69233;51.968;5.658;2023-08-07T02:06:27;16.8;75.1
79750;SHT31;69233;51.968;5.658;2023-08-07T02:09:00;16.8;74.7
79750;SHT31;69233;51.968;5.658;2023-08-07T02:11:30;16.8;74.7
79750;SHT31;69233;51.968;5.658;2023-08-07T02:14:03;16.8;74.6
79750;SHT31;69233;51.968;5.658;2023-08-07T02:16:37;16.8;74.8
79750;SHT31;69233;51.968;5.658;2023-08-07T02:19:08;16.8;74.7
79750;SHT31;69233;51.968;5.658;2023-08-07T02:21:41;16.8;74.9
79750;SHT31;69233;51.968;5.658;2023-08-07T02:24:10;16.8;74.7
79750;SHT31;69233;51.968;5.658;2023-08-07T02:26:41;16.8;74.9
79750;SHT31;69233;51.968;5.658;2023-08-07T02:29:10;16.8;74.6
79750;SHT31;69233;51.968;5.658;2023-08-07T02:31:41;16.8;74.2
79750;SHT31;69233;51.968;5.658;2023-08-07T02:34:11;16.8;74.3
79750;SHT31;69233;51.968;5.658;2023-08-07T02:36:42;16.8;74.5
79750;SHT31;69233;51.968;5.658;2023-08-07T02:39:22;16.7;74.5
79750;SHT31;69233;51.968;5.658;2023-08-07T02:41:53;16.7;74.9
79750;SHT31;69233;51.968;5.658;2023-08-07T02:44:22;16.7;74.9
79750;SHT31;69233;51.968;5.658;2023-08-07T02:46:52;16.7;75.1
79750;SHT31;69233;51.968;5.658;2023-08-07T02:49:23;16.7;74.8
79750;SHT31;69233;51.968;5.658;2023-08-07T02:51:53;16.7;74.4
79750;SHT31;69233;51.968;5.658;2023-08-07T02:54:23;16.7;74.9
79750;SHT31;69233;51.968;5.658;2023-08-07T02:56:53;16.7;74.8
79750;SHT31;69233;51.968;5.658;2023-08-07T02:59:23;16.7;75.1
79750;SHT31;69233;51.968;5.658;2023-08-07T03:01:53;16.7;75.1
79750;SHT31;69233;51.968;5.658;2023-08-07T03:04:24;16.7;75.1
79750;SHT31;69233;51.968;5.658;2023-08-07T03:06:53;16.7;74.9
79750;SHT31;69233;51.968;5.658;2023-08-07T03:09:23;16.8;75.0
79750;SHT31;69233;51.968;5.658;2023-08-07T03:11:55;16.8;75.0
79750;SHT31;69233;51.968;5.658;2023-08-07T03:14:30;16.8;75.0
79750;SHT31;69233;51.968;5.658;2023-08-07T03:17:00;16.8;74.9
79750;SHT31;69233;51.968;5.658;2023-08-07T03:19:30;16.8;75.1
79750;SHT31;69233;51.968;5.658;2023-08-07T03:21:59;16.8;75.0
79750;SHT31;69233;51.968;5.658;2023-08-07T03:24:29;16.8;75.0
79750;SHT31;69233;51.968;5.658;2023-08-07T03:26:59;16.8;75.0
79750;SHT31;69233;51.968;5.658;2023-08-07T03:29:29;16.8;75.0
79750;SHT31;69233;51.968;5.658;2023-08-07T03:32:01;16.8;75.1
79750;SHT31;69233;51.968;5.658;2023-08-07T03:34:32;16.7;75.3
79750;SHT31;69233;51.968;5.658;2023-08-07T03:37:02;16.7;75.3
79750;SHT31;69233;51.968;5.658;2023-08-07T03:39:35;16.7;75.4
79750;SHT31;69233;51.968;5.658;2023-08-07T03:42:06;16.7;75.4
79750;SHT31;69233;51.968;5.658;2023-08-07T03:44:36;16.7;75.3
79750;SHT31;69233;51.968;5.658;2023-08-07T03:47:07;16.7;75.4
79750;SHT31;69233;51.968;5.658;2023-08-07T03:49:36;16.7;75.3
79750;SHT31;69233;51.968;5.658;2023-08-07T03:52:09;16.7;75.2
79750;SHT31;69233;51.968;5.658;2023-08-07T03:54:40;16.7;75.6
79750;SHT31;69233;51.968;5.658;2023-08-07T03:57:15;16.7;75.3
79750;SHT31;69233;51.968;5.658;2023-08-07T04:01:46;16.7;75.5
79750;SHT31;69233;51.968;5.658;2023-08-07T04:04:16;16.7;75.5
79750;SHT31;69233;51.968;5.658;2023-08-07T04:06:50;16.7;75.4
79750;SHT31;69233;51.968;5.658;2023-08-07T04:09:22;16.7;75.4
79750;SHT31;69233;51.968;5.658;2023-08-07T04:12:13;16.7;75.5
79750;SHT31;69233;51.968;5.658;2023-08-07T04:14:45;16.7;75.1
79750;SHT31;69233;51.968;5.658;2023-08-07T04:17:17;16.7;75.5
79750;SHT31;69233;51.968;5.658;2023-08-07T04:21:45;16.7;75.5
79750;SHT31;69233;51.968;5.658;2023-08-07T04:24:21;16.7;75.7
79750;SHT31;69233;51.968;5.658;2023-08-07T04:26:52;16.7;75.7
79750;SHT31;69233;51.968;5.658;2023-08-07T04:29:32;16.7;75.8
79750;SHT31;69233;51.968;5.658;2023-08-07T04:32:02;16.7;75.9
79750;SHT31;69233;51.968;5.658;2023-08-07T04:34:37;16.8;75.9
79750;SHT31;69233;51.968;5.658;2023-08-07T04:37:09;16.8;75.8
79750;SHT31;69233;51.968;5.658;2023-08-07T04:39:39;16.8;75.8
79750;SHT31;69233;51.968;5.658;2023-08-07T04:42:11;16.8;75.7
79750;SHT31;69233;51.968;5.658;2023-08-07T04:44:42;16.8;75.9
79750;SHT31;69233;51.968;5.658;2023-08-07T04:47:11;16.8;76.1
79750;SHT31;69233;51.968;5.658;2023-08-07T04:50:56;16.8;75.8
79750;SHT31;69233;51.968;5.658;2023-08-07T04:53:28;16.8;76.1
79750;SHT31;69233;51.968;5.658;2023-08-07T04:57:11;16.8;76.2
79750;SHT31;69233;51.968;5.658;2023-08-07T04:59:40;16.8;76.0
79750;SHT31;69233;51.968;5.658;2023-08-07T05:02:11;16.8;76.2
79750;SHT31;69233;51.968;5.658;2023-08-07T05:04:41;16.8;76.3
79750;SHT31;69233;51.968;5.658;2023-08-07T05:07:11;16.8;76.4
79750;SHT31;69233;51.968;5.658;2023-08-07T05:09:42;16.8;76.4
79750;SHT31;69233;51.968;5.658;2023-08-07T05:12:12;16.8;76.4
79750;SHT31;69233;51.968;5.658;2023-08-07T05:14:42;16.9;76.2
79750;SHT31;69233;51.968;5.658;2023-08-07T05:18:23;16.9;76.1
79750;SHT31;69233;51.968;5.658;2023-08-07T05:20:55;16.9;76.1
79750;SHT31;69233;51.968;5.658;2023-08-07T05:23:25;16.9;75.9
79750;SHT31;69233;51.968;5.658;2023-08-07T05:26:49;16.9;76.2
79750;SHT31;69233;51.968;5.658;2023-08-07T05:29:21;16.9;76.2
79750;SHT31;69233;51.968;5.658;2023-08-07T05:31:50;16.9;76.4
79750;SHT31;69233;51.968;5.658;2023-08-07T05:34:21;16.9;76.3
79750;SHT31;69233;51.968;5.658;2023-08-07T05:36:51;17.0;76.2
79750;SHT31;69233;51.968;5.658;2023-08-07T05:39:20;17.0;76.1
79750;SHT31;69233;51.968;5.658;2023-08-07T05:41:50;17.0;76.0
79750;SHT31;69233;51.968;5.658;2023-08-07T05:44:24;17.0;76.0
79750;SHT31;69233;51.968;5.658;2023-08-07T05:46:54;17.0;75.8
79750;SHT31;69233;51.968;5.658;2023-08-07T05:49:23;17.0;75.8
79750;SHT31;69233;51.968;5.658;2023-08-07T05:51:55;17.0;75.9
79750;SHT31;69233;51.968;5.658;2023-08-07T05:54:25;17.0;76.1
79750;SHT31;69233;51.968;5.658;2023-08-07T05:56:55;17.0;76.1
79750;SHT31;69233;51.968;5.658;2023-08-07T05:59:25;17.0;76.0
79750;SHT31;69233;51.968;5.658;2023-08-07T06:01:56;17.0;76.1
79750;SHT31;69233;51.968;5.658;2023-08-07T06:04:30;17.0;76.0
79750;SHT31;69233;51.968;5.658;2023-08-07T06:07:00;17.0;76.2
79750;SHT31;69233;51.968;5.658;2023-08-07T06:09:31;17.0;76.3
79750;SHT31;69233;51.968;5.658;2023-08-07T06:12:01;17.0;76.7
79750;SHT31;69233;51.968;5.658;2023-08-07T06:14:31;17.0;76.5
79750;SHT31;69233;51.968;5.658;2023-08-07T06:17:05;17.0;76.7
79750;SHT31;69233;51.968;5.658;2023-08-07T06:19:34;17.0;77.0
79750;SHT31;69233;51.968;5.658;2023-08-07T06:22:06;17.0;76.7
79750;SHT31;69233;51.968;5.658;2023-08-07T06:24:36;17.0;76.8
79750;SHT31;69233;51.968;5.658;2023-08-07T06:27:23;17.1;76.8
79750;SHT31;69233;51.968;5.658;2023-08-07T06:29:58;17.1;76.7
79750;SHT31;69233;51.968;5.658;2023-08-07T06:52:26;17.5;75.6
79750;SHT31;69233;51.968;5.658;2023-08-07T06:59:10;17.7;76.1
79750;SHT31;69233;51.968;5.658;2023-08-07T07:01:46;17.8;75.4
79750;SHT31;69233;51.968;5.658;2023-08-07T07:05:23;17.8;75.9
79750;SHT31;69233;51.968;5.658;2023-08-07T07:09:54;17.9;75.7
79750;SHT31;69233;51.968;5.658;2023-08-07T07:14:23;18.0;75.1
79750;SHT31;69233;51.968;5.658;2023-08-07T07:17:10;18.1;75.8
79750;SHT31;69233;51.968;5.658;2023-08-07T07:24:42;18.3;76.1
79750;SHT31;69233;51.968;5.658;2023-08-07T07:27:27;18.3;78.5
79750;SHT31;69233;51.968;5.658;2023-08-07T07:30:08;18.4;79.9
79750;SHT31;69233;51.968;5.658;2023-08-07T07:52:43;19.4;70.0
79750;SHT31;69233;51.968;5.658;2023-08-07T08:03:40;19.4;72.7
79750;SHT31;69233;51.968;5.658;2023-08-07T08:06:14;19.4;71.5
79750;SHT31;69233;51.968;5.658;2023-08-07T08:10:57;19.4;71.0
79750;SHT31;69233;51.968;5.658;2023-08-07T08:16:28;19.4;71.6
79750;SHT31;69233;51.968;5.658;2023-08-07T08:20:05;19.4;70.7
79750;SHT31;69233;51.968;5.658;2023-08-07T08:24:38;19.4;71.6
79750;SHT31;69233;51.968;5.658;2023-08-07T08:27:09;19.4;72.9
79750;SHT31;69233;51.968;5.658;2023-08-07T08:30:11;19.3;71.4
79750;SHT31;69233;51.968;5.658;2023-08-07T08:32:42;19.3;71.4
79750;SHT31;69233;51.968;5.658;2023-08-07T08:43:46;19.5;75.8
79750;SHT31;69233;51.968;5.658;2023-08-07T08:50:22;19.7;71.5
79750;SHT31;69233;51.968;5.658;2023-08-07T08:54:53;19.8;69.9
79750;SHT31;69233;51.968;5.658;2023-08-07T08:59:32;19.8;70.2
79750;SHT31;69233;51.968;5.658;2023-08-07T09:04:04;19.8;70.6
79750;SHT31;69233;51.968;5.658;2023-08-07T09:06:48;19.9;69.7
79750;SHT31;69233;51.968;5.658;2023-08-07T09:09:25;19.9;72.0
79750;SHT31;69233;51.968;5.658;2023-08-07T09:11:57;20.0;70.8
79750;SHT31;69233;51.968;5.658;2023-08-07T09:14:30;20.1;71.3
79750;SHT31;69233;51.968;5.658;2023-08-07T09:17:04;20.2;72.4
79750;SHT31;69233;51.968;5.658;2023-08-07T09:21:34;20.4;68.7
79750;SHT31;69233;51.968;5.658;2023-08-07T09:24:09;20.4;68.3
79750;SHT31;69233;51.968;5.658;2023-08-07T09:32:58;20.5;63.4
79750;SHT31;69233;51.968;5.658;2023-08-07T09:37:30;20.4;66.7
79750;SHT31;69233;51.968;5.658;2023-08-07T09:40:38;20.3;66.7
79750;SHT31;69233;51.968;5.658;2023-08-07T09:50:05;20.2;69.6
79750;SHT31;69233;51.968;5.658;2023-08-07T09:52:46;20.4;71.3
79750;SHT31;69233;51.968;5.658;2023-08-07T09:55:24;20.6;71.3
79750;SHT31;69233;51.968;5.658;2023-08-07T10:08:28;21.4;66.3
79750;SHT31;69233;51.968;5.658;2023-08-07T10:11:15;21.6;64.7
79750;SHT31;69233;51.968;5.658;2023-08-07T10:15:43;21.8;64.5
79750;SHT31;69233;51.968;5.658;2023-08-07T10:26:42;22.0;63.9
79750;SHT31;69233;51.968;5.658;2023-08-07T10:29:19;22.0;64.3
79750;SHT31;69233;51.968;5.658;2023-08-07T10:31:55;22.0;65.0
79750;SHT31;69233;51.968;5.658;2023-08-07T10:34:36;22.0;63.0
79750;SHT31;69233;51.968;5.658;2023-08-07T10:39:15;22.1;63.1
79750;SHT31;69233;51.968;5.658;2023-08-07T10:42:10;22.1;60.6
79750;SHT31;69233;51.968;5.658;2023-08-07T10:44:51;22.1;60.1
79750;SHT31;69233;51.968;5.658;2023-08-07T10:47:32;22.0;61.4
79750;SHT31;69233;51.968;5.658;2023-08-07T10:50:03;21.9;63.6
79750;SHT31;69233;51.968;5.658;2023-08-07T10:52:38;21.8;61.5
79750;SHT31;69233;51.968;5.658;2023-08-07T10:55:15;21.8;63.4
79750;SHT31;69233;51.968;5.658;2023-08-07T10:57:47;21.8;63.0
79750;SHT31;69233;51.968;5.658;2023-08-07T11:01:58;21.8;64.3
79750;SHT31;69233;51.968;5.658;2023-08-07T11:04:30;21.9;68.3
79750;SHT31;69233;51.968;5.658;2023-08-07T11:07:00;22.1;65.7
79750;SHT31;69233;51.968;5.658;2023-08-07T11:09:30;22.3;65.3
79750;SHT31;69233;51.968;5.658;2023-08-07T11:12:05;22.5;61.9
79750;SHT31;69233;51.968;5.658;2023-08-07T11:14:35;22.7;58.5
79750;SHT31;69233;51.968;5.658;2023-08-07T11:17:10;22.8;62.0
79750;SHT31;69233;51.968;5.658;2023-08-07T11:19:40;22.9;58.0
79750;SHT31;69233;51.968;5.658;2023-08-07T11:22:10;23.0;59.1
79750;SHT31;69233;51.968;5.658;2023-08-07T11:35:07;23.0;56.3
79750;SHT31;69233;51.968;5.658;2023-08-07T11:53:00;22.7;56.8
79750;SHT31;69233;51.968;5.658;2023-08-07T12:31:18;24.4;56.2
79750;SHT31;69233;51.968;5.658;2023-08-07T12:42:16;25.3;49.3
79750;SHT31;69233;51.968;5.658;2023-08-07T12:53:31;24.9;51.3
79750;SHT31;69233;51.968;5.658;2023-08-07T13:49:36;25.2;52.1
79750;SHT31;69233;51.968;5.658;2023-08-07T13:52:06;25.4;46.7
79750;SHT31;69233;51.968;5.658;2023-08-07T14:03:11;27.1;45.9
79750;SHT31;69233;51.968;5.658;2023-08-07T14:16:07;28.6;41.4
79750;SHT31;69233;51.968;5.658;2023-08-07T14:54:25;28.8;36.2
79750;SHT31;69233;51.968;5.658;2023-08-07T15:07:24;28.9;36.8
79750;SHT31;69233;51.968;5.658;2023-08-07T15:09:57;29.2;37.3
79750;SHT31;69233;51.968;5.658;2023-08-07T16:53:36;23.1;50.7
79750;SHT31;69233;51.968;5.658;2023-08-07T16:56:07;22.9;51.2
79750;SHT31;69233;51.968;5.658;2023-08-07T17:12:51;22.3;52.1
79750;SHT31;69233;51.968;5.658;2023-08-07T17:24:09;22.0;52.5
79750;SHT31;69233;51.968;5.658;2023-08-07T17:27:10;21.9;53.8
79750;SHT31;69233;51.968;5.658;2023-08-07T17:29:57;21.8;51.8
79750;SHT31;69233;51.968;5.658;2023-08-07T17:32:48;21.7;53.0
79750;SHT31;69233;51.968;5.658;2023-08-07T17:35:23;21.6;53.3
79750;SHT31;69233;51.968;5.658;2023-08-07T17:38:26;21.5;53.0
79750;SHT31;69233;51.968;5.658;2023-08-07T17:41:02;21.4;54.2
79750;SHT31;69233;51.968;5.658;2023-08-07T18:31:47;21.0;56.6
79750;SHT31;69233;51.968;5.658;2023-08-07T18:38:16;20.8;56.9
79750;SHT31;69233;51.968;5.658;2023-08-07T19:14:54;20.4;57.3
79750;SHT31;69233;51.968;5.658;2023-08-07T19:21:25;20.3;56.8
79750;SHT31;69233;51.968;5.658;2023-08-07T19:26:01;20.1;57.6
79750;SHT31;69233;51.968;5.658;2023-08-07T19:28:41;20.0;57.3
79750;SHT31;69233;51.968;5.658;2023-08-07T19:31:12;19.9;57.9
79750;SHT31;69233;51.968;5.658;2023-08-07T19:33:42;19.7;58.7
79750;SHT31;69233;51.968;5.658;2023-08-07T19:38:10;19.5;59.2
79750;SHT31;69233;51.968;5.658;2023-08-07T19:40:41;19.4;59.2
79750;SHT31;69233;51.968;5.658;2023-08-07T19:45:22;19.3;59.6
79750;SHT31;69233;51.968;5.658;2023-08-07T19:47:56;19.2;60.0
79750;SHT31;69233;51.968;5.658;2023-08-07T19:50:29;19.1;60.1
79750;SHT31;69233;51.968;5.658;2023-08-07T19:52:59;19.0;60.6
79750;SHT31;69233;51.968;5.658;2023-08-07T19:55:44;18.9;60.9
79750;SHT31;69233;51.968;5.658;2023-08-07T20:24:33;18.8;61.5
79750;SHT31;69233;51.968;5.658;2023-08-07T20:29:01;18.8;61.0
79750;SHT31;69233;51.968;5.658;2023-08-07T20:31:38;18.8;61.7
79750;SHT31;69233;51.968;5.658;2023-08-07T20:34:13;18.7;62.2
79750;SHT31;69233;51.968;5.658;2023-08-07T20:36:50;18.7;62.7
79750;SHT31;69233;51.968;5.658;2023-08-07T20:39:41;18.7;63.4
79750;SHT31;69233;51.968;5.658;2023-08-07T20:42:59;18.7;63.3
79750;SHT31;69233;51.968;5.658;2023-08-07T20:46:32;18.7;64.2
79750;SHT31;69233;51.968;5.658;2023-08-07T20:49:04;18.7;63.5
79750;SHT31;69233;51.968;5.658;2023-08-07T20:51:35;18.7;63.5
79750;SHT31;69233;51.968;5.658;2023-08-07T20:54:04;18.7;63.9
79750;SHT31;69233;51.968;5.658;2023-08-07T20:56:34;18.7;64.1
79750;SHT31;69233;51.968;5.658;2023-08-07T20:59:04;18.7;63.6
79750;SHT31;69233;51.968;5.658;2023-08-07T21:01:35;18.6;64.1
79750;SHT31;69233;51.968;5.658;2023-08-07T21:04:15;18.6;64.4
79750;SHT31;69233;51.968;5.658;2023-08-07T21:06:44;18.6;64.6
79750;SHT31;69233;51.968;5.658;2023-08-07T21:09:18;18.6;64.2
79750;SHT31;69233;51.968;5.658;2023-08-07T21:11:48;18.6;64.4
79750;SHT31;69233;51.968;5.658;2023-08-07T21:14:19;18.5;64.9
79750;SHT31;69233;51.968;5.658;2023-08-07T21:16:53;18.5;64.8
79750;SHT31;69233;51.968;5.658;2023-08-07T21:19:32;18.5;65.0
79750;SHT31;69233;51.968;5.658;2023-08-07T21:22:14;18.5;65.4
79750;SHT31;69233;51.968;5.658;2023-08-07T21:24:48;18.5;65.6
79750;SHT31;69233;51.968;5.658;2023-08-07T21:27:18;18.5;65.7
79750;SHT31;69233;51.968;5.658;2023-08-07T21:29:48;18.5;65.3
79750;SHT31;69233;51.968;5.658;2023-08-07T21:32:18;18.5;66.0
79750;SHT31;69233;51.968;5.658;2023-08-07T21:34:50;18.5;66.2
79750;SHT31;69233;51.968;5.658;2023-08-07T21:37:28;18.5;66.2
79750;SHT31;69233;51.968;5.658;2023-08-07T21:40:08;18.5;66.3
79750;SHT31;69233;51.968;5.658;2023-08-07T21:42:40;18.6;66.4
79750;SHT31;69233;51.968;5.658;2023-08-07T21:45:11;18.6;66.5
79750;SHT31;69233;51.968;5.658;2023-08-07T21:48:17;18.6;66.4
79750;SHT31;69233;51.968;5.658;2023-08-07T21:51:49;18.6;66.5
79750;SHT31;69233;51.968;5.658;2023-08-07T21:54:20;18.6;65.5
79750;SHT31;69233;51.968;5.658;2023-08-07T21:56:49;18.7;66.2
79750;SHT31;69233;51.968;5.658;2023-08-07T21:59:20;18.7;66.5
79750;SHT31;69233;51.968;5.658;2023-08-07T22:01:50;18.7;65.7
79750;SHT31;69233;51.968;5.658;2023-08-07T22:04:20;18.7;66.3
79750;SHT31;69233;51.968;5.658;2023-08-07T22:06:59;18.7;66.7
79750;SHT31;69233;51.968;5.658;2023-08-07T22:09:35;18.7;65.7
79750;SHT31;69233;51.968;5.658;2023-08-07T22:15:51;18.7;64.9
79750;SHT31;69233;51.968;5.658;2023-08-07T22:18:23;18.8;66.3
79750;SHT31;69233;51.968;5.658;2023-08-07T22:27:55;19.0;65.0
79750;SHT31;69233;51.968;5.658;2023-08-07T22:30:27;19.0;64.6
79750;SHT31;69233;51.968;5.658;2023-08-07T22:37:50;19.0;64.9
79750;SHT31;69233;51.968;5.658;2023-08-07T22:40:21;19.0;63.9
79750;SHT31;69233;51.968;5.658;2023-08-07T22:44:00;19.0;64.5
79750;SHT31;69233;51.968;5.658;2023-08-07T22:46:49;19.0;64.7
79750;SHT31;69233;51.968;5.658;2023-08-07T22:49:20;19.0;64.4
79750;SHT31;69233;51.968;5.658;2023-08-07T22:52:02;19.0;64.5
79750;SHT31;69233;51.968;5.658;2023-08-07T22:54:32;18.9;64.7
79750;SHT31;69233;51.968;5.658;2023-08-07T22:57:05;18.9;64.5
79750;SHT31;69233;51.968;5.658;2023-08-07T22:59:35;18.9;64.6
79750;SHT31;69233;51.968;5.658;2023-08-07T23:02:05;18.8;64.5
79750;SHT31;69233;51.968;5.658;2023-08-07T23:04:36;18.8;64.6
79750;SHT31;69233;51.968;5.658;2023-08-07T23:07:07;18.8;64.7
79750;SHT31;69233;51.968;5.658;2023-08-07T23:09:37;18.7;64.8
79750;SHT31;69233;51.968;5.658;2023-08-07T23:12:07;18.6;64.7
79750;SHT31;69233;51.968;5.658;2023-08-07T23:14:38;18.6;64.6
79750;SHT31;69233;51.968;5.658;2023-08-07T23:17:07;18.5;65.2
79750;SHT31;69233;51.968;5.658;2023-08-07T23:19:37;18.5;65.2
79750;SHT31;69233;51.968;5.658;2023-08-07T23:22:06;18.4;65.3
79750;SHT31;69233;51.968;5.658;2023-08-07T23:24:36;18.4;65.3
79750;SHT31;69233;51.968;5.658;2023-08-07T23:27:06;18.3;65.5
79750;SHT31;69233;51.968;5.658;2023-08-07T23:29:36;18.3;65.8
79750;SHT31;69233;51.968;5.658;2023-08-07T23:32:07;18.2;65.6
79750;SHT31;69233;51.968;5.658;2023-08-07T23:34:37;18.2;65.7
79750;SHT31;69233;51.968;5.658;2023-08-07T23:37:10;18.1;65.9
79750;SHT31;69233;51.968;5.658;2023-08-07T23:39:40;18.1;65.9
79750;SHT31;69233;51.968;5.658;2023-08-07T23:42:09;18.0;66.3
79750;SHT31;69233;51.968;5.658;2023-08-07T23:44:41;18.0;66.4
79750;SHT31;69233;51.968;5.658;2023-08-07T23:47:11;18.0;66.6
79750;SHT31;69233;51.968;5.658;2023-08-07T23:49:40;17.9;66.7
79750;SHT31;69233;51.968;5.658;2023-08-07T23:52:11;17.9;66.9
79750;SHT31;69233;51.968;5.658;2023-08-07T23:54:43;17.8;67.2
79750;SHT31;69233;51.968;5.658;2023-08-07T23:57:13;17.8;67.4
79750;SHT31;69233;51.968;5.658;2023-08-07T23:59:42;17.8;67.9
